createdAt,value
2018-08-07T00:00:20.603Z,2.40
2018-08-07T00:02:51.882Z,1.30
2018-08-07T00:05:20.766Z,1.60
2018-08-07T00:07:52.146Z,1.30
2018-08-07T00:10:22.278Z,1.70
2018-08-07T00:12:51.089Z,1.27
2018-08-07T00:15:21.436Z,2.37
2018-08-07T00:17:50.239Z,1.30
2018-08-07T00:20:19.354Z,1.90
2018-08-07T00:22:48.315Z,1.30
2018-08-07T00:25:17.184Z,1.80
2018-08-07T00:27:46.560Z,1.40
2018-08-07T00:30:17.067Z,1.70
2018-08-07T00:32:46.143Z,1.20
2018-08-07T00:35:17.640Z,1.80
2018-08-07T00:37:47.243Z,1.30
2018-08-07T00:40:17.170Z,1.83
2018-08-07T00:42:47.248Z,1.53
2018-08-07T00:45:18.497Z,1.90
2018-08-07T00:47:48.005Z,1.10
2018-08-07T00:50:18.464Z,1.70
2018-08-07T00:52:48.781Z,1.50
2018-08-07T00:55:18.732Z,2.20
2018-08-07T00:57:48.811Z,1.63
2018-08-07T01:00:17.749Z,2.00
2018-08-07T01:02:47.164Z,1.63
2018-08-07T01:05:17.407Z,1.90
2018-08-07T01:07:46.947Z,1.63
2018-08-07T01:10:17.465Z,2.13
2018-08-07T01:12:46.322Z,1.60
2018-08-07T01:15:18.443Z,2.40
2018-08-07T01:17:48.141Z,2.00
2018-08-07T01:20:18.210Z,2.30
2018-08-07T01:22:47.109Z,1.83
2018-08-07T01:25:18.191Z,2.43
2018-08-07T01:27:47.497Z,2.00
2018-08-07T01:30:22.482Z,2.20
2018-08-07T01:32:51.489Z,1.60
2018-08-07T01:35:20.452Z,1.93
2018-08-07T01:37:50.033Z,1.53
2018-08-07T01:40:18.847Z,2.50
2018-08-07T01:42:48.097Z,1.90
2018-08-07T01:45:16.865Z,2.13
2018-08-07T01:47:46.606Z,1.93
2018-08-07T01:50:16.185Z,3.30
2018-08-07T01:52:45.857Z,2.00
2018-08-07T01:55:21.107Z,2.50
2018-08-07T01:57:50.442Z,1.90
2018-08-07T02:00:19.338Z,2.47
2018-08-07T02:02:49.542Z,1.90
2018-08-07T02:05:18.384Z,3.43
2018-08-07T02:07:48.156Z,2.00
2018-08-07T02:10:18.486Z,2.87
2018-08-07T02:12:47.323Z,2.17
2018-08-07T02:15:16.971Z,2.43
2018-08-07T02:17:46.578Z,1.80
2018-08-07T02:20:16.510Z,2.63
2018-08-07T02:22:45.902Z,2.30
2018-08-07T02:25:17.385Z,2.90
2018-08-07T02:27:47.239Z,2.67
2018-08-07T02:30:16.711Z,2.60
2018-08-07T02:32:45.538Z,2.13
2018-08-07T02:35:15.477Z,2.47
2018-08-07T02:37:45.267Z,2.40
2018-08-07T02:40:15.259Z,2.80
2018-08-07T02:42:45.111Z,2.60
2018-08-07T02:45:16.037Z,2.90
2018-08-07T02:47:45.991Z,2.40
2018-08-07T02:51:18.257Z,2.80
2018-08-07T02:53:47.832Z,2.70
2018-08-07T02:56:17.332Z,3.47
2018-08-07T02:58:46.203Z,2.30
2018-08-07T03:01:15.012Z,3.20
2018-08-07T03:03:45.279Z,2.63
2018-08-07T03:06:14.099Z,3.33
2018-08-07T03:08:43.668Z,2.70
2018-08-07T03:11:12.622Z,3.63
2018-08-07T03:13:41.442Z,3.43
2018-08-07T03:16:10.909Z,3.17
2018-08-07T03:18:40.423Z,2.80
2018-08-07T03:21:09.310Z,3.10
2018-08-07T03:23:38.106Z,3.20
2018-08-07T03:26:07.890Z,3.13
2018-08-07T03:28:36.693Z,2.90
2018-08-07T03:31:05.519Z,3.17
2018-08-07T03:33:34.341Z,3.50
2018-08-07T03:36:03.081Z,2.80
2018-08-07T03:38:31.959Z,3.33
2018-08-07T03:41:01.135Z,3.37
2018-08-07T03:43:29.899Z,3.23
2018-08-07T03:45:59.023Z,3.23
2018-08-07T03:48:28.480Z,3.80
2018-08-07T03:50:57.967Z,3.10
2018-08-07T03:53:27.706Z,3.50
2018-08-07T03:55:57.097Z,3.03
2018-08-07T03:58:25.947Z,4.20
2018-08-07T04:00:54.770Z,3.60
2018-08-07T04:03:24.118Z,4.37
2018-08-07T04:05:52.951Z,3.50
2018-08-07T04:08:22.559Z,4.20
2018-08-07T04:10:51.980Z,3.77
2018-08-07T04:13:20.735Z,3.53
2018-08-07T04:15:50.011Z,3.70
2018-08-07T04:18:19.409Z,4.00
2018-08-07T04:20:48.135Z,4.50
2018-08-07T04:23:16.872Z,4.00
2018-08-07T04:25:45.991Z,5.00
2018-08-07T04:28:15.319Z,3.90
2018-08-07T04:30:44.077Z,3.50
2018-08-07T04:33:12.867Z,4.17
2018-08-07T04:35:41.633Z,4.00
2018-08-07T04:38:10.402Z,3.63
2018-08-07T04:40:39.796Z,4.87
2018-08-07T04:43:08.561Z,3.87
2018-08-07T04:45:37.321Z,3.90
2018-08-07T04:48:07.562Z,3.77
2018-08-07T04:50:36.383Z,4.00
2018-08-07T04:53:05.993Z,4.20
2018-08-07T04:55:34.795Z,3.87
2018-08-07T04:58:04.373Z,3.77
2018-08-07T05:00:33.199Z,3.97
2018-08-07T05:03:03.005Z,4.23
2018-08-07T05:05:31.808Z,3.47
2018-08-07T05:08:01.286Z,3.53
2018-08-07T05:10:30.849Z,4.33
2018-08-07T05:12:59.659Z,4.57
2018-08-07T05:15:29.425Z,3.13
2018-08-07T05:17:59.199Z,3.77
2018-08-07T05:20:28.225Z,3.67
2018-08-07T05:22:57.321Z,3.67
2018-08-07T05:25:26.408Z,3.73
2018-08-07T05:27:56.004Z,3.50
2018-08-07T05:30:24.761Z,2.97
2018-08-07T05:32:53.515Z,2.90
2018-08-07T05:35:22.387Z,2.77
2018-08-07T05:37:51.176Z,2.40
2018-08-07T05:40:20.064Z,2.20
2018-08-07T05:42:49.829Z,3.27
2018-08-07T05:45:18.616Z,2.20
2018-08-07T05:47:48.159Z,2.40
2018-08-07T05:50:17.550Z,2.07
2018-08-07T05:52:46.811Z,2.20
2018-08-07T05:55:15.775Z,2.17
2018-08-07T05:57:45.334Z,3.00
2018-08-07T06:00:18.579Z,1.80
2018-08-07T06:02:49.170Z,2.20
2018-08-07T06:05:17.075Z,1.80
2018-08-07T06:07:46.735Z,2.33
2018-08-07T06:10:15.889Z,1.93
2018-08-07T06:12:44.782Z,2.23
2018-08-07T06:15:15.982Z,1.77
2018-08-07T06:17:46.073Z,2.23
2018-08-07T06:20:14.916Z,1.80
2018-08-07T06:22:43.784Z,2.10
2018-08-07T06:25:12.562Z,1.93
2018-08-07T06:27:42.331Z,1.77
2018-08-07T06:30:13.446Z,1.73
2018-08-07T06:32:42.216Z,2.33
2018-08-07T06:38:10.457Z,2.17
2018-08-07T06:40:39.329Z,2.40
2018-08-07T06:43:08.156Z,2.50
2018-08-07T06:45:36.985Z,2.27
2018-08-07T06:48:07.400Z,2.63
2018-08-07T06:50:36.171Z,2.50
2018-08-07T06:53:05.603Z,2.43
2018-08-07T06:55:34.443Z,2.37
2018-08-07T06:58:03.719Z,2.70
2018-08-07T07:00:32.563Z,2.33
2018-08-07T07:03:02.108Z,2.70
2018-08-07T07:05:30.910Z,2.43
2018-08-07T07:08:00.379Z,2.10
2018-08-07T07:10:29.302Z,2.57
2018-08-07T07:12:59.052Z,2.37
2018-08-07T07:15:29.846Z,2.20
2018-08-07T07:17:59.510Z,2.77
2018-08-07T07:20:29.394Z,2.20
2018-08-07T07:22:59.120Z,2.40
2018-08-07T07:25:28.212Z,2.20
2018-08-07T07:27:57.992Z,1.70
2018-08-07T07:30:27.057Z,2.10
2018-08-07T07:32:57.568Z,1.80
2018-08-07T07:35:27.214Z,2.20
2018-08-07T07:37:56.227Z,2.07
2018-08-07T07:40:25.212Z,2.07
2018-08-07T07:42:53.959Z,1.87
2018-08-07T07:45:22.783Z,2.00
2018-08-07T07:47:52.069Z,1.97
2018-08-07T07:50:21.910Z,1.60
2018-08-07T07:52:51.345Z,1.60
2018-08-07T07:55:20.262Z,1.77
2018-08-07T07:57:49.635Z,2.30
2018-08-07T08:00:26.383Z,2.20
2018-08-07T08:02:56.249Z,1.60
2018-08-07T08:05:26.422Z,1.80
2018-08-07T08:07:56.529Z,1.90
2018-08-07T08:10:25.501Z,1.83
2018-08-07T08:12:54.342Z,1.40
2018-08-07T08:15:23.649Z,1.70
2018-08-07T08:17:52.918Z,1.60
2018-08-07T08:20:23.456Z,1.57
2018-08-07T08:22:52.990Z,2.07
2018-08-07T08:25:21.861Z,2.50
2018-08-07T08:27:51.104Z,2.40
2018-08-07T08:30:19.991Z,2.43
2018-08-07T08:32:48.824Z,2.00
2018-08-07T08:35:18.742Z,2.37
2018-08-07T08:37:47.892Z,2.20
2018-08-07T08:40:21.090Z,2.47
2018-08-07T08:42:49.955Z,2.10
2018-08-07T08:45:20.850Z,2.10
2018-08-07T08:47:51.562Z,1.97
2018-08-07T08:50:21.497Z,1.83
2018-08-07T08:52:51.025Z,1.40
2018-08-07T08:55:19.860Z,1.70
2018-08-07T08:57:49.289Z,1.73
2018-08-07T09:00:23.273Z,1.70
2018-08-07T09:02:53.136Z,1.60
2018-08-07T09:05:22.308Z,1.53
2018-08-07T09:07:52.103Z,1.40
2018-08-07T09:10:25.859Z,1.70
2018-08-07T09:12:55.304Z,1.20
2018-08-07T09:15:24.813Z,1.33
2018-08-07T09:17:54.241Z,1.50
2018-08-07T09:20:27.192Z,1.40
2018-08-07T09:22:56.684Z,1.20
2018-08-07T09:25:26.858Z,1.47
2018-08-07T09:27:56.467Z,1.30
2018-08-07T09:30:26.792Z,1.43
2018-08-07T09:32:56.867Z,1.20
2018-08-07T09:35:26.171Z,1.60
2018-08-07T09:37:55.992Z,1.67
2018-08-07T09:40:24.991Z,1.70
2018-08-07T09:42:55.080Z,1.60
2018-08-07T09:45:26.971Z,1.30
2018-08-07T09:47:56.947Z,1.50
2018-08-07T09:50:25.788Z,1.50
2018-08-07T09:52:55.591Z,1.43
2018-08-07T09:55:38.966Z,1.40
2018-08-07T09:58:08.274Z,1.70
2018-08-07T10:00:42.308Z,1.60
2018-08-07T10:03:12.833Z,1.60
2018-08-07T10:05:41.631Z,1.67
2018-08-07T10:08:11.592Z,1.13
2018-08-07T10:10:40.415Z,1.50
2018-08-07T10:13:09.326Z,1.20
2018-08-07T10:15:38.584Z,1.40
2018-08-07T10:18:07.926Z,1.43
2018-08-07T10:20:36.708Z,1.40
2018-08-07T10:23:05.520Z,1.20
2018-08-07T10:25:34.280Z,1.50
2018-08-07T10:28:04.323Z,1.07
2018-08-07T10:30:33.202Z,1.37
2018-08-07T10:33:02.048Z,0.93
2018-08-07T10:35:31.308Z,1.30
2018-08-07T10:38:00.118Z,1.00
2018-08-07T10:40:29.455Z,1.40
2018-08-07T10:42:58.824Z,1.07
2018-08-07T10:45:28.272Z,1.23
2018-08-07T10:47:58.568Z,0.93
2018-08-07T10:50:28.870Z,1.23
2018-08-07T10:52:59.203Z,0.80
2018-08-07T10:55:28.648Z,1.17
2018-08-07T10:57:59.817Z,0.87
2018-08-07T11:00:31.856Z,1.00
2018-08-07T11:03:01.495Z,0.93
2018-08-07T11:05:30.720Z,1.13
2018-08-07T11:08:00.386Z,0.93
2018-08-07T11:10:29.542Z,1.20
2018-08-07T11:12:58.668Z,0.90
2018-08-07T11:15:31.294Z,1.13
2018-08-07T11:18:01.338Z,0.93
2018-08-07T11:20:30.255Z,1.30
2018-08-07T11:23:00.767Z,0.80
2018-08-07T11:25:30.972Z,1.87
2018-08-07T11:28:00.695Z,1.00
2018-08-07T11:30:30.323Z,1.20
2018-08-07T11:33:00.532Z,1.00
2018-08-07T11:35:30.228Z,1.27
2018-08-07T11:38:00.663Z,0.93
2018-08-07T11:40:30.065Z,1.40
2018-08-07T11:43:00.220Z,1.30
2018-08-07T11:45:30.532Z,1.40
2018-08-07T11:48:00.222Z,1.03
2018-08-07T11:50:30.726Z,1.63
2018-08-07T11:53:00.133Z,1.00
2018-08-07T11:55:29.203Z,1.50
2018-08-07T11:57:58.740Z,1.10
2018-08-07T12:00:33.779Z,1.70
2018-08-07T12:03:03.503Z,1.40
2018-08-07T12:05:32.314Z,1.80
2018-08-07T12:08:01.815Z,1.30
2018-08-07T12:10:30.599Z,1.40
2018-08-07T12:12:59.542Z,1.30
2018-08-07T12:15:29.417Z,1.60
2018-08-07T12:17:59.042Z,1.20
2018-08-07T12:20:28.123Z,1.33
2018-08-07T12:22:57.171Z,1.47
2018-08-07T12:25:26.215Z,1.40
2018-08-07T12:27:56.223Z,1.20
2018-08-07T12:30:29.997Z,1.40
2018-08-07T12:32:59.738Z,2.00
2018-08-07T12:35:28.992Z,1.30
2018-08-07T12:37:58.196Z,2.10
2018-08-07T12:40:28.637Z,1.70
2018-08-07T12:43:00.210Z,2.70
2018-08-07T12:45:29.376Z,1.67
2018-08-07T12:47:59.281Z,1.90
2018-08-07T12:50:28.426Z,1.57
2018-08-07T12:52:57.939Z,1.83
2018-08-07T12:55:27.004Z,1.70
2018-08-07T12:57:56.911Z,2.53
2018-08-07T13:00:27.421Z,1.70
2018-08-07T13:02:57.580Z,1.90
2018-08-07T13:05:27.171Z,1.67
2018-08-07T13:07:57.079Z,2.03
2018-08-07T13:10:26.761Z,1.40
2018-08-07T13:12:56.719Z,1.77
2018-08-07T13:15:26.537Z,1.83
2018-08-07T13:17:56.334Z,1.93
2018-08-07T13:20:25.126Z,1.93
2018-08-07T13:22:54.009Z,1.57
2018-08-07T13:25:23.532Z,2.40
2018-08-07T13:27:52.947Z,1.70
2018-08-07T13:30:24.070Z,2.17
2018-08-07T13:32:52.847Z,1.67
2018-08-07T13:35:21.798Z,2.00
2018-08-07T13:37:51.566Z,2.00
2018-08-07T13:40:22.074Z,1.90
2018-08-07T13:42:50.966Z,1.77
2018-08-07T13:45:21.498Z,2.80
2018-08-07T13:47:50.971Z,2.00
2018-08-07T13:50:21.295Z,1.63
2018-08-07T13:52:51.110Z,2.67
2018-08-07T13:55:21.440Z,1.80
2018-08-07T13:57:50.460Z,2.10
2018-08-07T14:00:21.325Z,1.80
2018-08-07T14:02:51.280Z,2.03
2018-08-07T14:05:20.834Z,1.50
2018-08-07T14:07:51.392Z,1.97
2018-08-07T14:10:21.128Z,1.63
2018-08-07T14:12:49.994Z,1.80
2018-08-07T14:15:20.345Z,1.60
2018-08-07T14:17:49.927Z,2.03
2018-08-07T14:20:18.977Z,2.07
2018-08-07T14:22:47.982Z,2.20
2018-08-07T14:25:19.519Z,2.00
2018-08-07T14:27:49.158Z,2.07
2018-08-07T14:30:35.328Z,2.00
2018-08-07T14:33:04.826Z,2.20
2018-08-07T14:35:33.593Z,2.20
2018-08-07T14:38:02.638Z,2.17
2018-08-07T14:40:31.459Z,2.07
2018-08-07T14:43:00.343Z,2.20
2018-08-07T14:45:29.926Z,1.90
2018-08-07T14:47:59.808Z,1.97
2018-08-07T14:50:29.828Z,1.60
2018-08-07T14:52:59.356Z,2.33
2018-08-07T14:55:29.223Z,1.77
2018-08-07T14:57:58.298Z,1.97
2018-08-07T15:00:28.482Z,1.80
2018-08-07T15:02:58.225Z,2.63
2018-08-07T15:05:27.780Z,2.40
2018-08-07T15:07:57.326Z,1.70
2018-08-07T15:10:27.627Z,1.87
2018-08-07T15:12:56.514Z,2.30
2018-08-07T15:15:29.167Z,1.87
2018-08-07T15:17:58.845Z,2.10
2018-08-07T15:20:29.315Z,1.70
2018-08-07T15:22:58.740Z,1.80
2018-08-07T15:25:42.177Z,1.73
2018-08-07T15:28:11.627Z,1.80
2018-08-07T15:30:40.756Z,2.10
2018-08-07T15:33:09.611Z,1.80
2018-08-07T15:35:38.439Z,2.20
2018-08-07T15:38:07.531Z,2.00
2018-08-07T15:40:36.491Z,2.00
2018-08-07T15:43:05.360Z,2.10
2018-08-07T15:45:34.208Z,2.00
2018-08-07T15:48:04.027Z,2.10
2018-08-07T15:50:32.839Z,1.90
2018-08-07T15:53:02.050Z,2.10
2018-08-07T15:55:31.516Z,1.93
2018-08-07T15:58:00.401Z,2.10
2018-08-07T16:00:32.033Z,2.00
2018-08-07T16:03:03.588Z,2.10
2018-08-07T16:05:32.714Z,2.23
2018-08-07T16:08:02.365Z,2.03
2018-08-07T16:10:31.395Z,2.00
2018-08-07T16:13:00.227Z,2.10
2018-08-07T16:15:30.032Z,2.30
2018-08-07T16:17:59.896Z,2.07
2018-08-07T16:20:29.129Z,2.30
2018-08-07T16:23:27.057Z,2.00
2018-08-07T16:25:56.109Z,1.93
2018-08-07T16:28:26.495Z,1.80
2018-08-07T16:30:56.421Z,2.10
2018-08-07T16:33:25.345Z,2.20
2018-08-07T16:35:54.131Z,2.20
2018-08-07T16:38:22.894Z,2.00
2018-08-07T16:40:51.939Z,2.40
2018-08-07T16:43:20.855Z,2.20
2018-08-07T16:45:49.623Z,2.70
2018-08-07T16:48:19.207Z,2.13
2018-08-07T16:50:48.039Z,2.47
2018-08-07T16:53:17.686Z,2.33
2018-08-07T16:55:47.135Z,2.30
2018-08-07T16:58:15.894Z,1.77
2018-08-07T17:00:44.676Z,2.50
2018-08-07T17:03:14.140Z,2.40
2018-08-07T17:05:42.910Z,2.47
2018-08-07T17:08:12.351Z,2.23
2018-08-07T17:10:41.130Z,2.10
2018-08-07T17:13:09.927Z,2.10
2018-08-07T17:15:39.345Z,2.00
2018-08-07T17:18:08.871Z,2.13
2018-08-07T17:20:37.744Z,2.33
2018-08-07T17:23:06.612Z,1.80
2018-08-07T17:25:35.395Z,1.90
2018-08-07T17:28:04.648Z,1.93
2018-08-07T17:30:33.401Z,1.87
2018-08-07T17:33:02.272Z,2.07
2018-08-07T17:35:31.120Z,1.60
2018-08-07T17:38:00.462Z,2.60
2018-08-07T17:40:30.223Z,2.30
2018-08-07T17:42:59.504Z,1.93
2018-08-07T17:45:28.967Z,2.00
2018-08-07T17:48:00.215Z,1.80
2018-08-07T17:50:29.284Z,1.90
2018-08-07T17:53:00.929Z,2.17
2018-08-07T17:55:30.236Z,1.80
2018-08-07T17:58:00.778Z,1.93
2018-08-07T18:00:29.711Z,1.90
2018-08-07T18:02:59.464Z,2.00
2018-08-07T18:05:28.657Z,2.13
2018-08-07T18:07:59.778Z,2.20
2018-08-07T18:10:28.840Z,2.10
2018-08-07T18:12:58.508Z,2.07
2018-08-07T18:15:28.166Z,2.13
2018-08-07T18:17:59.080Z,2.27
2018-08-07T18:20:28.613Z,2.30
2018-08-07T18:22:58.139Z,2.17
2018-08-07T18:25:28.430Z,1.80
2018-08-07T18:27:58.395Z,2.23
2018-08-07T18:30:27.498Z,2.03
2018-08-07T18:32:56.793Z,1.80
2018-08-07T18:35:26.930Z,2.00
2018-08-07T18:37:55.828Z,2.13
2018-08-07T18:40:24.774Z,2.50
2018-08-07T18:42:53.600Z,1.90
2018-08-07T18:45:22.335Z,2.20
2018-08-07T18:47:51.751Z,2.17
2018-08-07T18:50:22.276Z,2.57
2018-08-07T18:52:51.767Z,2.00
2018-08-07T18:55:21.020Z,2.30
2018-08-07T18:57:50.707Z,2.13
2018-08-07T19:00:21.006Z,2.73
2018-08-07T19:02:50.442Z,2.40
2018-08-07T19:05:20.365Z,2.90
2018-08-07T19:07:50.173Z,2.50
2018-08-07T19:10:19.016Z,2.60
2018-08-07T19:12:48.686Z,2.30
2018-08-07T19:15:19.163Z,3.30
2018-08-07T19:17:48.660Z,2.43
2018-08-07T19:20:19.192Z,2.57
2018-08-07T19:22:48.338Z,2.20
2018-08-07T19:25:17.167Z,3.10
2018-08-07T19:27:46.631Z,2.77
2018-08-07T19:30:17.418Z,3.13
2018-08-07T19:32:46.315Z,2.10
2018-08-07T19:35:15.391Z,3.50
2018-08-07T19:37:44.162Z,2.40
2018-08-07T19:40:14.878Z,2.83
2018-08-07T19:42:44.365Z,2.27
2018-08-07T19:45:13.632Z,3.00
2018-08-07T19:47:43.467Z,2.20
2018-08-07T19:50:14.379Z,3.17
2018-08-07T19:52:43.970Z,2.47
2018-08-07T19:55:16.024Z,4.00
2018-08-07T19:57:45.518Z,2.77
2018-08-07T20:00:18.875Z,3.00
2018-08-07T20:02:49.188Z,2.80
2018-08-07T20:05:18.143Z,3.43
2018-08-07T20:07:47.860Z,2.43
2018-08-07T20:10:17.476Z,3.23
2018-08-07T20:12:46.318Z,2.93
2018-08-07T20:15:18.954Z,3.60
2018-08-07T20:17:48.958Z,2.57
2018-08-07T20:20:17.832Z,3.10
2018-08-07T20:22:46.656Z,2.93
2018-08-07T20:25:15.487Z,3.70
2018-08-07T20:27:44.720Z,2.63
2018-08-07T20:30:16.762Z,3.67
2018-08-07T20:32:46.478Z,3.03
2018-08-07T20:35:15.409Z,3.67
2018-08-07T20:37:44.296Z,3.00
2018-08-07T20:40:16.433Z,4.20
2018-08-07T20:42:45.388Z,3.10
2018-08-07T20:45:14.571Z,3.87
2018-08-07T20:47:43.841Z,2.93
2018-08-07T20:50:17.122Z,3.67
2018-08-07T20:52:47.083Z,3.20
2018-08-07T20:55:16.746Z,4.57
2018-08-07T20:57:46.090Z,3.30
2018-08-07T21:00:17.296Z,4.20
2018-08-07T21:02:46.904Z,3.10
2018-08-07T21:05:15.816Z,3.63
2018-08-07T21:07:45.503Z,3.37
2018-08-07T21:10:18.658Z,3.77
2018-08-07T21:12:47.518Z,3.57
2018-08-07T21:15:16.903Z,4.33
2018-08-07T21:17:46.159Z,3.80
2018-08-07T21:20:17.365Z,4.00
2018-08-07T21:22:46.701Z,3.87
2018-08-07T21:25:18.268Z,4.33
2018-08-07T21:27:49.344Z,3.97
2018-08-07T21:30:23.572Z,4.50
2018-08-07T21:32:52.384Z,3.87
2018-08-07T21:35:21.199Z,4.43
2018-08-07T21:37:50.141Z,3.90
2018-08-07T21:40:20.190Z,4.20
2018-08-07T21:42:49.927Z,4.33
2018-08-07T21:45:18.979Z,4.93
2018-08-07T21:47:49.351Z,4.57
2018-08-07T21:50:20.002Z,4.30
2018-08-07T21:52:49.461Z,4.60
2018-08-07T21:55:19.787Z,4.30
2018-08-07T21:57:49.062Z,4.17
2018-08-07T22:00:50.008Z,4.30
2018-08-07T22:03:20.020Z,4.70
2018-08-07T22:05:49.712Z,3.97
2018-08-07T22:08:19.358Z,4.23
2018-08-07T22:10:48.237Z,4.23
2018-08-07T22:13:17.096Z,4.83
2018-08-07T22:15:46.522Z,4.50
2018-08-07T22:18:16.055Z,4.43
2018-08-07T22:20:44.975Z,4.70
2018-08-07T22:23:13.861Z,4.70
2018-08-07T22:25:42.715Z,4.63
2018-08-07T22:28:12.538Z,4.37
2018-08-07T22:30:41.439Z,4.50
2018-08-07T22:33:10.226Z,4.67
2018-08-07T22:35:39.040Z,5.13
2018-08-07T22:38:07.830Z,5.53
2018-08-07T22:40:36.738Z,4.63
2018-08-07T22:43:05.607Z,4.20
2018-08-07T22:45:34.426Z,5.50
2018-08-07T22:48:04.181Z,4.57
2018-08-07T22:50:33.005Z,5.17
2018-08-07T22:53:03.312Z,4.83
2018-08-07T22:55:32.755Z,5.30
2018-08-07T22:58:01.543Z,4.70
2018-08-07T23:00:30.400Z,5.57
2018-08-07T23:02:59.735Z,5.33
2018-08-07T23:05:30.764Z,5.20
2018-08-07T23:08:00.496Z,4.87
2018-08-07T23:10:29.857Z,5.60
2018-08-07T23:12:59.235Z,4.53
2018-08-07T23:15:29.502Z,5.17
2018-08-07T23:17:59.264Z,5.53
2018-08-07T23:20:28.778Z,5.10
2018-08-07T23:22:58.961Z,5.37
2018-08-07T23:25:28.264Z,5.00
2018-08-07T23:27:58.618Z,4.93
2018-08-07T23:30:27.802Z,4.70
2018-08-07T23:32:56.836Z,4.87
2018-08-07T23:35:26.127Z,5.67
2018-08-07T23:37:54.982Z,4.47
2018-08-07T23:40:24.066Z,5.07
2018-08-07T23:42:52.863Z,4.60
2018-08-07T23:45:22.093Z,4.60
2018-08-07T23:47:51.317Z,4.83
2018-08-07T23:50:20.087Z,4.73
2018-08-07T23:52:49.516Z,4.93
2018-08-07T23:55:18.956Z,4.47
2018-08-07T23:57:48.147Z,4.47
